Main page
METAR-TAF:

METAR-TAF

Airports :

Sukhothai Airport

Sukhothai, Thailand

latitude: 17-14-16N, longitude: 099-49-05E, elevation: 55 m

Current weather observation

The report was made 31 minutes ago, at 09:00 UTC
Wind 4 kt from variable directions
Temperature 40°C
Humidity 34%
Pressure 1002 hPa
Visibility 10 km or more
Few clouds at a height of 3500 ft

METAR: VTPO 210900Z VRB04KT 9999 FEW035 40/21 Q1002 NOSIG

Time: 16:31 (09:31 UTC)

Forecast

The report was made 4 hours and 31 minutes ago, at 05:00 UTC
Forecast valid from 21 at 06 UTC to 22 at 06 UTC
Wind 5 kt from the South/Southwest
Visibility: 9000 m
Few clouds at a height of 3500 ft

TAF: VTPO 210500Z 2106/2206 21005KT 9000 FEW035

Weather observations and forecasts of more than 4000 airports (METAR and TAF reports).

The available stations are represented by yellow and red dots on the map.

Hover mouse over dot to see the name of the station.

Then click to see weather observations and forecasts.

To change the map : click on the green buttons with a black cross to zoom in, on the green button with a dash to zoom out, or on the green arrows for adjacent maps.


METAR-TAF: